Terminal Aerodrome Forecast
Issued by NWS

Home | Current Version | Previous Version | Text Only | Print | Product List | Glossary On
Versions: 1 2 3 4 5 6 7 8 9 10 11 12 13 14
000
FTUS43 KMQT 291134
TAFIWD
TAF
KIWD 291134Z 2912/3012 23013G23KT P6SM SKC
     FM291600 25017G30KT P6SM SCT050
     FM291800 25017G30KT P6SM BKN050
     FM292300 26014G23KT P6SM SCT060
     FM300200 26012G18KT P6SM FEW100
      AMD LTD TO CLD VIS AND WIND=

USA.gov is the U.S. government's official web portal to all federal, state and local government web resources and services.